Etusivu
METAR-TAF:

METAR-TAF

Lentoasemat :

Berlevåg, Norja

Leveyspiiri: 70-52N, Pituuspiiri: 029-02E, korkeus merenpinnasta: 1 m

Tämänhetkinen sää

Tämä raportti tehtiin 14 tuntia ja 15 minuuttia sitten, kello 19.50 UTC
Tuuli 10 kn lännestä
Lämpötila 0°C
Kosteus 93%
Ilmanpaine 1019 hPa
Näkyvyys: 1000 m
Hajonneita pilviä 2400 ft:n korkeudessa
lumikuuroja

METAR: ENBV 261950Z 26010KT 9999 1000S SHSN SCT14 BKN024 M00/M01 Q1019

Aika: 12:05 (10:05 UTC)

Sääennuste

Tämä raportti tehtiin 26 tuntia ja 5 minuuttia sitten, kello 08.00 UTC
Ennuste voimassa 26. päivästä klo 09 UTC - 26. päivään klo 12 UTC
Tuuli 10 kn pohjoisesta
Näkyvyys 10 km tai enemmän
Muutamia pilviä 800 ft:n korkeudessa
Hajonneita pilviä 2000 ft:n korkeudessa
Ajoittain
26. päivästä klo 09 UTC - 26. päivään klo 12 UTC
Näkyvyys: 2000 m
600 ft:n korkeudessa
lumikuuroja

TAF: ENBV 260800Z 2609/2612 36010KT 9999 FEW008 BKN020 TEMPO 2609/2612 2000 SHSN VV006

Säähavainnot ja -ennusteet yli 4000 lentoasemalta (METAR- ja TAF-raportit).

Käytössä olevat sääasemat on merkitty karttaan keltaisilla ja punaisilla pisteillä.

Aseta hiiri pisteen päälle nähdäksesi sääaseman nimen.

Klikkaa sitten nähdäksesi säähavainnot ja -ennusteet.

Kartan vaihtaminen: klikkaa mustalla rastilla varustettuja vihreitä pisteitä, niin voit zoomata sisään; viivalla varustettua vihreää pistettä, niin voit zoomata ulos tai vihreitä nuolia, niin pääset viereisille kartoille.


METAR-TAF: